Weather Forecast for Al Ain Airport 
Friday, April 28, 2017 (10:10 UTC)
Al Ain International Airport
ICAO Code: OMAL
IATA Code: AAN
  • METAR OMAL 281000Z 13006KT 070V190 CAVOK 41/07 Q1009 BECMG 29010KT=
  • TAF OMAL 280500Z 2806/2912 18010KT 8000 NSC BECMG 2808/2810 34011KT BECMG 2823/2901 17014KT=
AL AIN (OMAL) 5 DAY OUTLOOK:
Friday, 28/Apr/2017
HIGH:
41°C
LOW:
25°C
MIN. VISIBILITY:
8000 meters
WIND (DIRECTION/SPEED):
S at 5 - 7 knots (9 - 13 km/h) becoming NW at 10 - 15 knots (19 - 28 km/h)
WEATHER:
Sunny.
RAINFALL:
Nil
Saturday, 29/Apr/2017
HIGH:
41°C
LOW:
28°C
MIN. VISIBILITY:
6000 meters
WIND (DIRECTION/SPEED):
S at 7 - 10 knots (13 - 19 km/h) becoming NW at 10 - 15 knots (19 - 28 km/h)
WEATHER:
Sunny.
RAINFALL:
Nil
Sunday, 30/Apr/2017
HIGH:
42°C
LOW:
28°C
MIN. VISIBILITY:
8000 meters
WIND (DIRECTION/SPEED):
SSE at 7 - 10 knots (13 - 19 km/h) becoming NW at 10 - 15 knots (19 - 28 km/h)
WEATHER:
Sunny.
RAINFALL:
Nil
Monday, 01/May/2017
HIGH:
41°C
LOW:
27°C
MIN. VISIBILITY:
6000 meters
WIND (DIRECTION/SPEED):
S at 7 - 10 knots (13 - 19 km/h) becoming NW at 10 - 15 knots (19 - 28 km/h)
WEATHER:
Partly Cloudy.
RAINFALL:
Nil
Tuesday, 02/May/2017
HIGH:
41°C
LOW:
26°C
MIN. VISIBILITY:
7000 meters
WIND (DIRECTION/SPEED):
Light and variable wind becoming NW at 10 - 15 knots (19 - 28 km/h)
WEATHER:
Partly Cloudy
RAINFALL:
Nil